sensor_id;sensor_type;location;lat;lon;timestamp;P1;durP1;ratioP1;P2;durP2;ratioP2
3415;SDS011;1721;51.238;9.562;2023-07-30T00:00:43;5.10;;;2.03;;
3415;SDS011;1721;51.238;9.562;2023-07-30T00:03:08;4.50;;;1.87;;
3415;SDS011;1721;51.238;9.562;2023-07-30T00:05:34;4.03;;;1.57;;
3415;SDS011;1721;51.238;9.562;2023-07-30T00:07:59;4.50;;;1.80;;
3415;SDS011;1721;51.238;9.562;2023-07-30T00:10:25;7.87;;;2.47;;
3415;SDS011;1721;51.238;9.562;2023-07-30T00:12:50;7.00;;;2.07;;
3415;SDS011;1721;51.238;9.562;2023-07-30T00:15:16;4.87;;;1.80;;
3415;SDS011;1721;51.238;9.562;2023-07-30T00:17:42;7.20;;;1.83;;
3415;SDS011;1721;51.238;9.562;2023-07-30T00:20:07;6.90;;;2.20;;
3415;SDS011;1721;51.238;9.562;2023-07-30T00:22:34;4.95;;;2.00;;
3415;SDS011;1721;51.238;9.562;2023-07-30T00:24:59;4.40;;;1.77;;
3415;SDS011;1721;51.238;9.562;2023-07-30T00:27:25;6.33;;;2.37;;
3415;SDS011;1721;51.238;9.562;2023-07-30T00:29:50;4.60;;;2.10;;
3415;SDS011;1721;51.238;9.562;2023-07-30T00:32:16;5.10;;;1.87;;
3415;SDS011;1721;51.238;9.562;2023-07-30T00:34:42;5.80;;;2.00;;
3415;SDS011;1721;51.238;9.562;2023-07-30T00:37:08;7.10;;;2.85;;
3415;SDS011;1721;51.238;9.562;2023-07-30T00:39:34;9.20;;;2.17;;
3415;SDS011;1721;51.238;9.562;2023-07-30T00:41:59;5.87;;;2.17;;
3415;SDS011;1721;51.238;9.562;2023-07-30T00:44:25;6.80;;;2.40;;
3415;SDS011;1721;51.238;9.562;2023-07-30T00:46:50;8.57;;;2.20;;
3415;SDS011;1721;51.238;9.562;2023-07-30T00:49:16;4.70;;;2.10;;
3415;SDS011;1721;51.238;9.562;2023-07-30T00:51:42;5.03;;;1.70;;
3415;SDS011;1721;51.238;9.562;2023-07-30T00:54:08;6.50;;;1.90;;
3415;SDS011;1721;51.238;9.562;2023-07-30T00:56:35;9.13;;;2.30;;
3415;SDS011;1721;51.238;9.562;2023-07-30T00:59:01;11.68;;;1.95;;
3415;SDS011;1721;51.238;9.562;2023-07-30T01:01:27;6.00;;;1.97;;
3415;SDS011;1721;51.238;9.562;2023-07-30T01:03:53;9.18;;;2.42;;
3415;SDS011;1721;51.238;9.562;2023-07-30T01:06:19;5.38;;;1.60;;
3415;SDS011;1721;51.238;9.562;2023-07-30T01:08:45;7.10;;;2.10;;
3415;SDS011;1721;51.238;9.562;2023-07-30T01:11:11;5.43;;;1.87;;
3415;SDS011;1721;51.238;9.562;2023-07-30T01:13:38;6.43;;;2.47;;
3415;SDS011;1721;51.238;9.562;2023-07-30T01:16:04;6.75;;;2.38;;
3415;SDS011;1721;51.238;9.562;2023-07-30T01:18:31;5.03;;;2.10;;
3415;SDS011;1721;51.238;9.562;2023-07-30T01:20:57;5.10;;;1.67;;
3415;SDS011;1721;51.238;9.562;2023-07-30T01:23:24;22.60;;;2.83;;
3415;SDS011;1721;51.238;9.562;2023-07-30T01:25:51;5.07;;;2.03;;
3415;SDS011;1721;51.238;9.562;2023-07-30T01:28:46;6.00;;;2.50;;
3415;SDS011;1721;51.238;9.562;2023-07-30T01:31:14;4.73;;;2.40;;
3415;SDS011;1721;51.238;9.562;2023-07-30T01:33:41;5.72;;;2.15;;
3415;SDS011;1721;51.238;9.562;2023-07-30T01:36:08;7.55;;;2.17;;
3415;SDS011;1721;51.238;9.562;2023-07-30T01:38:39;9.38;;;2.22;;
3415;SDS011;1721;51.238;9.562;2023-07-30T01:41:06;6.50;;;2.37;;
3415;SDS011;1721;51.238;9.562;2023-07-30T01:43:31;4.67;;;2.13;;
3415;SDS011;1721;51.238;9.562;2023-07-30T01:45:57;5.77;;;2.50;;
3415;SDS011;1721;51.238;9.562;2023-07-30T01:48:22;5.87;;;2.37;;
3415;SDS011;1721;51.238;9.562;2023-07-30T01:50:48;10.20;;;2.23;;
3415;SDS011;1721;51.238;9.562;2023-07-30T01:53:14;7.87;;;2.30;;
3415;SDS011;1721;51.238;9.562;2023-07-30T01:55:39;5.30;;;1.80;;
3415;SDS011;1721;51.238;9.562;2023-07-30T01:58:08;5.40;;;1.75;;
3415;SDS011;1721;51.238;9.562;2023-07-30T02:00:34;7.40;;;2.00;;
3415;SDS011;1721;51.238;9.562;2023-07-30T02:03:00;8.07;;;2.43;;
3415;SDS011;1721;51.238;9.562;2023-07-30T02:05:26;4.90;;;2.33;;
3415;SDS011;1721;51.238;9.562;2023-07-30T02:07:51;9.50;;;2.20;;
3415;SDS011;1721;51.238;9.562;2023-07-30T02:10:17;4.60;;;2.00;;
3415;SDS011;1721;51.238;9.562;2023-07-30T02:12:42;5.10;;;1.93;;
3415;SDS011;1721;51.238;9.562;2023-07-30T02:15:08;5.77;;;2.50;;
3415;SDS011;1721;51.238;9.562;2023-07-30T02:17:34;5.23;;;2.30;;
3415;SDS011;1721;51.238;9.562;2023-07-30T02:19:59;5.97;;;2.60;;
3415;SDS011;1721;51.238;9.562;2023-07-30T02:22:25;4.63;;;2.07;;
3415;SDS011;1721;51.238;9.562;2023-07-30T02:24:50;5.73;;;2.30;;
3415;SDS011;1721;51.238;9.562;2023-07-30T02:27:16;5.83;;;2.23;;
3415;SDS011;1721;51.238;9.562;2023-07-30T02:29:41;6.20;;;2.20;;
3415;SDS011;1721;51.238;9.562;2023-07-30T02:32:07;6.32;;;2.42;;
3415;SDS011;1721;51.238;9.562;2023-07-30T02:34:34;5.90;;;2.63;;
3415;SDS011;1721;51.238;9.562;2023-07-30T02:36:59;4.73;;;1.97;;
3415;SDS011;1721;51.238;9.562;2023-07-30T02:39:25;5.73;;;2.60;;
3415;SDS011;1721;51.238;9.562;2023-07-30T02:41:50;11.90;;;2.47;;
3415;SDS011;1721;51.238;9.562;2023-07-30T02:44:25;8.20;;;2.57;;
3415;SDS011;1721;51.238;9.562;2023-07-30T02:46:51;5.90;;;2.70;;
3415;SDS011;1721;51.238;9.562;2023-07-30T02:49:16;6.90;;;2.37;;
3415;SDS011;1721;51.238;9.562;2023-07-30T02:51:42;7.00;;;2.40;;
3415;SDS011;1721;51.238;9.562;2023-07-30T02:54:13;7.07;;;2.35;;
3415;SDS011;1721;51.238;9.562;2023-07-30T02:56:39;4.90;;;2.30;;
3415;SDS011;1721;51.238;9.562;2023-07-30T02:59:04;8.30;;;3.10;;
3415;SDS011;1721;51.238;9.562;2023-07-30T03:01:30;7.63;;;2.37;;
3415;SDS011;1721;51.238;9.562;2023-07-30T03:03:55;8.33;;;2.37;;
3415;SDS011;1721;51.238;9.562;2023-07-30T03:06:21;9.13;;;2.60;;
3415;SDS011;1721;51.238;9.562;2023-07-30T03:08:47;5.30;;;2.40;;
3415;SDS011;1721;51.238;9.562;2023-07-30T03:11:12;5.30;;;2.33;;
3415;SDS011;1721;51.238;9.562;2023-07-30T03:13:38;14.77;;;2.30;;
3415;SDS011;1721;51.238;9.562;2023-07-30T03:16:04;6.90;;;2.93;;
3415;SDS011;1721;51.238;9.562;2023-07-30T03:18:29;6.40;;;2.70;;
3415;SDS011;1721;51.238;9.562;2023-07-30T03:20:58;6.40;;;2.57;;
3415;SDS011;1721;51.238;9.562;2023-07-30T03:23:28;5.50;;;2.63;;
3415;SDS011;1721;51.238;9.562;2023-07-30T03:25:54;5.30;;;2.40;;
3415;SDS011;1721;51.238;9.562;2023-07-30T03:28:19;5.23;;;2.13;;
3415;SDS011;1721;51.238;9.562;2023-07-30T03:30:45;6.93;;;2.20;;
3415;SDS011;1721;51.238;9.562;2023-07-30T03:33:10;7.90;;;3.03;;
3415;SDS011;1721;51.238;9.562;2023-07-30T03:35:36;6.63;;;3.30;;
3415;SDS011;1721;51.238;9.562;2023-07-30T03:38:01;5.40;;;2.60;;
3415;SDS011;1721;51.238;9.562;2023-07-30T03:40:27;7.20;;;3.37;;
3415;SDS011;1721;51.238;9.562;2023-07-30T03:42:53;6.22;;;2.70;;
3415;SDS011;1721;51.238;9.562;2023-07-30T03:45:19;7.00;;;2.97;;
3415;SDS011;1721;51.238;9.562;2023-07-30T03:47:44;7.67;;;2.83;;
3415;SDS011;1721;51.238;9.562;2023-07-30T03:50:10;8.60;;;3.40;;
3415;SDS011;1721;51.238;9.562;2023-07-30T03:52:35;7.53;;;3.60;;
3415;SDS011;1721;51.238;9.562;2023-07-30T03:55:01;8.20;;;2.70;;
3415;SDS011;1721;51.238;9.562;2023-07-30T03:57:26;9.90;;;3.37;;
3415;SDS011;1721;51.238;9.562;2023-07-30T03:59:52;6.57;;;2.70;;
3415;SDS011;1721;51.238;9.562;2023-07-30T04:02:17;6.83;;;3.20;;
3415;SDS011;1721;51.238;9.562;2023-07-30T04:04:43;7.43;;;3.20;;
3415;SDS011;1721;51.238;9.562;2023-07-30T04:07:11;15.50;;;3.92;;
3415;SDS011;1721;51.238;9.562;2023-07-30T04:09:36;8.90;;;2.93;;
3415;SDS011;1721;51.238;9.562;2023-07-30T04:12:02;8.73;;;4.37;;
3415;SDS011;1721;51.238;9.562;2023-07-30T04:14:28;6.83;;;3.40;;
3415;SDS011;1721;51.238;9.562;2023-07-30T04:16:53;11.20;;;4.23;;
3415;SDS011;1721;51.238;9.562;2023-07-30T04:19:19;10.13;;;4.07;;
3415;SDS011;1721;51.238;9.562;2023-07-30T04:21:44;8.70;;;3.70;;
3415;SDS011;1721;51.238;9.562;2023-07-30T04:24:10;8.87;;;4.00;;
3415;SDS011;1721;51.238;9.562;2023-07-30T04:26:36;7.10;;;3.40;;
3415;SDS011;1721;51.238;9.562;2023-07-30T04:29:01;10.90;;;3.70;;
3415;SDS011;1721;51.238;9.562;2023-07-30T04:31:27;7.50;;;3.13;;
3415;SDS011;1721;51.238;9.562;2023-07-30T04:33:52;7.27;;;3.43;;
3415;SDS011;1721;51.238;9.562;2023-07-30T04:36:18;15.03;;;3.73;;
3415;SDS011;1721;51.238;9.562;2023-07-30T04:38:43;7.03;;;3.80;;
3415;SDS011;1721;51.238;9.562;2023-07-30T04:41:09;6.97;;;3.70;;
3415;SDS011;1721;51.238;9.562;2023-07-30T04:43:34;11.70;;;4.10;;
3415;SDS011;1721;51.238;9.562;2023-07-30T04:46:00;8.70;;;4.20;;
3415;SDS011;1721;51.238;9.562;2023-07-30T04:48:25;7.87;;;4.20;;
3415;SDS011;1721;51.238;9.562;2023-07-30T04:50:51;10.40;;;4.03;;
3415;SDS011;1721;51.238;9.562;2023-07-30T04:53:16;8.57;;;4.00;;
3415;SDS011;1721;51.238;9.562;2023-07-30T04:55:43;14.07;;;4.40;;
3415;SDS011;1721;51.238;9.562;2023-07-30T04:58:10;10.43;;;3.88;;
3415;SDS011;1721;51.238;9.562;2023-07-30T05:00:35;6.27;;;3.43;;
3415;SDS011;1721;51.238;9.562;2023-07-30T05:03:00;6.87;;;3.80;;
3415;SDS011;1721;51.238;9.562;2023-07-30T05:05:26;6.97;;;4.07;;
3415;SDS011;1721;51.238;9.562;2023-07-30T05:07:52;6.60;;;3.23;;
3415;SDS011;1721;51.238;9.562;2023-07-30T05:10:17;7.97;;;3.83;;
3415;SDS011;1721;51.238;9.562;2023-07-30T05:12:43;5.73;;;3.00;;
3415;SDS011;1721;51.238;9.562;2023-07-30T05:15:08;8.67;;;3.43;;
3415;SDS011;1721;51.238;9.562;2023-07-30T05:17:34;8.90;;;3.40;;
3415;SDS011;1721;51.238;9.562;2023-07-30T05:19:59;7.50;;;3.60;;
3415;SDS011;1721;51.238;9.562;2023-07-30T05:22:25;6.80;;;3.00;;
3415;SDS011;1721;51.238;9.562;2023-07-30T05:24:50;7.07;;;3.40;;
3415;SDS011;1721;51.238;9.562;2023-07-30T05:27:16;7.70;;;3.40;;
3415;SDS011;1721;51.238;9.562;2023-07-30T05:29:41;5.77;;;2.13;;
3415;SDS011;1721;51.238;9.562;2023-07-30T05:32:07;7.33;;;2.50;;
3415;SDS011;1721;51.238;9.562;2023-07-30T05:34:33;7.07;;;2.10;;
3415;SDS011;1721;51.238;9.562;2023-07-30T05:36:59;5.07;;;2.07;;
3415;SDS011;1721;51.238;9.562;2023-07-30T05:39:24;5.83;;;2.27;;
3415;SDS011;1721;51.238;9.562;2023-07-30T05:41:51;5.17;;;2.47;;
3415;SDS011;1721;51.238;9.562;2023-07-30T05:44:16;5.30;;;2.07;;
3415;SDS011;1721;51.238;9.562;2023-07-30T05:46:42;9.27;;;2.10;;
3415;SDS011;1721;51.238;9.562;2023-07-30T05:49:08;6.27;;;2.70;;
3415;SDS011;1721;51.238;9.562;2023-07-30T05:51:33;5.47;;;2.10;;
3415;SDS011;1721;51.238;9.562;2023-07-30T05:53:59;7.03;;;2.37;;
3415;SDS011;1721;51.238;9.562;2023-07-30T05:56:24;7.43;;;2.30;;
3415;SDS011;1721;51.238;9.562;2023-07-30T05:58:50;6.23;;;2.30;;
3415;SDS011;1721;51.238;9.562;2023-07-30T06:01:16;6.00;;;2.30;;
3415;SDS011;1721;51.238;9.562;2023-07-30T06:03:42;6.73;;;2.33;;
3415;SDS011;1721;51.238;9.562;2023-07-30T06:06:07;7.60;;;2.00;;
3415;SDS011;1721;51.238;9.562;2023-07-30T06:08:33;8.77;;;2.30;;
3415;SDS011;1721;51.238;9.562;2023-07-30T06:11:02;5.50;;;2.10;;
3415;SDS011;1721;51.238;9.562;2023-07-30T06:13:31;7.53;;;2.40;;
3415;SDS011;1721;51.238;9.562;2023-07-30T06:15:56;6.07;;;2.30;;
3415;SDS011;1721;51.238;9.562;2023-07-30T06:18:22;6.80;;;2.33;;
3415;SDS011;1721;51.238;9.562;2023-07-30T06:20:47;6.17;;;2.30;;
3415;SDS011;1721;51.238;9.562;2023-07-30T06:23:14;7.40;;;2.10;;
3415;SDS011;1721;51.238;9.562;2023-07-30T06:25:39;5.43;;;2.33;;
3415;SDS011;1721;51.238;9.562;2023-07-30T06:28:05;10.20;;;2.57;;
3415;SDS011;1721;51.238;9.562;2023-07-30T06:30:33;10.30;;;2.40;;
3415;SDS011;1721;51.238;9.562;2023-07-30T06:33:01;7.00;;;2.50;;
3415;SDS011;1721;51.238;9.562;2023-07-30T06:35:27;12.30;;;2.77;;
3415;SDS011;1721;51.238;9.562;2023-07-30T06:37:52;7.43;;;2.70;;
3415;SDS011;1721;51.238;9.562;2023-07-30T06:40:18;6.93;;;2.60;;
3415;SDS011;1721;51.238;9.562;2023-07-30T06:42:43;6.90;;;2.17;;
3415;SDS011;1721;51.238;9.562;2023-07-30T06:45:09;6.50;;;2.50;;
3415;SDS011;1721;51.238;9.562;2023-07-30T06:47:35;8.03;;;2.40;;
3415;SDS011;1721;51.238;9.562;2023-07-30T06:50:00;5.10;;;1.90;;
3415;SDS011;1721;51.238;9.562;2023-07-30T06:52:26;5.37;;;2.37;;
3415;SDS011;1721;51.238;9.562;2023-07-30T06:54:51;6.27;;;2.40;;
3415;SDS011;1721;51.238;9.562;2023-07-30T06:57:17;7.00;;;2.40;;
3415;SDS011;1721;51.238;9.562;2023-07-30T06:59:42;5.20;;;2.30;;
3415;SDS011;1721;51.238;9.562;2023-07-30T07:02:08;5.83;;;2.47;;
3415;SDS011;1721;51.238;9.562;2023-07-30T07:04:33;10.00;;;2.53;;
3415;SDS011;1721;51.238;9.562;2023-07-30T07:06:59;5.30;;;2.33;;
3415;SDS011;1721;51.238;9.562;2023-07-30T07:09:28;5.03;;;2.30;;
3415;SDS011;1721;51.238;9.562;2023-07-30T07:11:53;10.53;;;3.30;;
3415;SDS011;1721;51.238;9.562;2023-07-30T07:14:19;7.40;;;2.30;;
3415;SDS011;1721;51.238;9.562;2023-07-30T07:16:44;5.80;;;2.60;;
3415;SDS011;1721;51.238;9.562;2023-07-30T07:19:10;6.50;;;2.47;;
3415;SDS011;1721;51.238;9.562;2023-07-30T07:21:36;8.70;;;2.70;;
3415;SDS011;1721;51.238;9.562;2023-07-30T07:24:01;5.10;;;2.23;;
3415;SDS011;1721;51.238;9.562;2023-07-30T07:26:27;8.07;;;2.90;;
3415;SDS011;1721;51.238;9.562;2023-07-30T07:28:52;8.17;;;3.70;;
3415;SDS011;1721;51.238;9.562;2023-07-30T07:31:21;8.37;;;2.97;;
3415;SDS011;1721;51.238;9.562;2023-07-30T07:33:46;8.43;;;3.00;;
3415;SDS011;1721;51.238;9.562;2023-07-30T07:36:12;11.17;;;3.00;;
3415;SDS011;1721;51.238;9.562;2023-07-30T07:38:39;11.20;;;3.10;;
3415;SDS011;1721;51.238;9.562;2023-07-30T07:41:04;7.30;;;3.07;;
3415;SDS011;1721;51.238;9.562;2023-07-30T07:43:30;6.67;;;3.40;;
3415;SDS011;1721;51.238;9.562;2023-07-30T07:45:55;10.60;;;3.73;;
3415;SDS011;1721;51.238;9.562;2023-07-30T07:48:21;7.20;;;2.97;;
3415;SDS011;1721;51.238;9.562;2023-07-30T07:50:46;6.80;;;2.80;;
3415;SDS011;1721;51.238;9.562;2023-07-30T07:53:12;5.67;;;2.93;;
3415;SDS011;1721;51.238;9.562;2023-07-30T07:55:37;6.93;;;3.77;;
3415;SDS011;1721;51.238;9.562;2023-07-30T07:58:03;6.87;;;3.27;;
3415;SDS011;1721;51.238;9.562;2023-07-30T08:00:28;7.47;;;3.60;;
3415;SDS011;1721;51.238;9.562;2023-07-30T08:02:54;11.90;;;5.30;;
3415;SDS011;1721;51.238;9.562;2023-07-30T08:05:22;9.40;;;4.13;;
3415;SDS011;1721;51.238;9.562;2023-07-30T08:07:49;9.80;;;4.00;;
3415;SDS011;1721;51.238;9.562;2023-07-30T08:10:15;6.90;;;3.63;;
3415;SDS011;1721;51.238;9.562;2023-07-30T08:12:41;10.90;;;3.43;;
3415;SDS011;1721;51.238;9.562;2023-07-30T08:15:07;7.73;;;3.37;;
3415;SDS011;1721;51.238;9.562;2023-07-30T08:17:32;8.87;;;3.17;;
3415;SDS011;1721;51.238;9.562;2023-07-30T08:19:58;7.27;;;3.43;;
3415;SDS011;1721;51.238;9.562;2023-07-30T08:22:23;9.40;;;3.43;;
3415;SDS011;1721;51.238;9.562;2023-07-30T08:24:49;8.43;;;3.20;;
3415;SDS011;1721;51.238;9.562;2023-07-30T08:27:15;8.97;;;2.83;;
3415;SDS011;1721;51.238;9.562;2023-07-30T08:29:40;6.43;;;3.13;;
3415;SDS011;1721;51.238;9.562;2023-07-30T08:32:06;8.80;;;3.33;;
3415;SDS011;1721;51.238;9.562;2023-07-30T08:34:31;6.03;;;3.30;;
3415;SDS011;1721;51.238;9.562;2023-07-30T08:36:57;9.20;;;3.13;;
3415;SDS011;1721;51.238;9.562;2023-07-30T08:39:22;8.47;;;2.73;;
3415;SDS011;1721;51.238;9.562;2023-07-30T08:41:48;6.43;;;2.90;;
3415;SDS011;1721;51.238;9.562;2023-07-30T08:44:14;6.33;;;3.00;;
3415;SDS011;1721;51.238;9.562;2023-07-30T08:46:39;9.20;;;3.00;;
3415;SDS011;1721;51.238;9.562;2023-07-30T08:49:05;7.37;;;2.80;;
3415;SDS011;1721;51.238;9.562;2023-07-30T08:51:31;8.03;;;2.80;;
3415;SDS011;1721;51.238;9.562;2023-07-30T08:53:58;6.03;;;2.77;;
3415;SDS011;1721;51.238;9.562;2023-07-30T08:56:25;6.07;;;2.27;;
3415;SDS011;1721;51.238;9.562;2023-07-30T08:58:52;6.43;;;2.40;;
3415;SDS011;1721;51.238;9.562;2023-07-30T09:01:22;5.70;;;2.50;;
3415;SDS011;1721;51.238;9.562;2023-07-30T09:03:49;10.37;;;2.50;;
3415;SDS011;1721;51.238;9.562;2023-07-30T09:06:17;7.80;;;2.60;;
3415;SDS011;1721;51.238;9.562;2023-07-30T09:08:43;11.50;;;3.43;;
3415;SDS011;1721;51.238;9.562;2023-07-30T09:11:09;5.80;;;2.73;;
3415;SDS011;1721;51.238;9.562;2023-07-30T09:13:39;9.00;;;2.63;;
3415;SDS011;1721;51.238;9.562;2023-07-30T09:16:12;7.93;;;2.90;;
3415;SDS011;1721;51.238;9.562;2023-07-30T09:18:39;6.93;;;2.60;;
3415;SDS011;1721;51.238;9.562;2023-07-30T09:21:05;12.30;;;3.63;;
3415;SDS011;1721;51.238;9.562;2023-07-30T09:23:31;6.07;;;2.63;;
3415;SDS011;1721;51.238;9.562;2023-07-30T09:26:00;7.03;;;2.60;;
3415;SDS011;1721;51.238;9.562;2023-07-30T09:28:31;8.80;;;2.70;;
3415;SDS011;1721;51.238;9.562;2023-07-30T09:31:00;8.10;;;3.00;;
3415;SDS011;1721;51.238;9.562;2023-07-30T09:33:27;6.67;;;3.20;;
3415;SDS011;1721;51.238;9.562;2023-07-30T09:35:52;5.70;;;2.37;;
3415;SDS011;1721;51.238;9.562;2023-07-30T09:38:18;7.13;;;2.60;;
3415;SDS011;1721;51.238;9.562;2023-07-30T09:40:45;7.13;;;2.77;;
3415;SDS011;1721;51.238;9.562;2023-07-30T09:43:14;7.33;;;2.30;;
3415;SDS011;1721;51.238;9.562;2023-07-30T09:45:40;9.40;;;3.00;;
3415;SDS011;1721;51.238;9.562;2023-07-30T09:48:09;8.53;;;4.30;;
3415;SDS011;1721;51.238;9.562;2023-07-30T09:50:35;11.53;;;5.30;;
3415;SDS011;1721;51.238;9.562;2023-07-30T09:53:04;12.10;;;4.67;;
3415;SDS011;1721;51.238;9.562;2023-07-30T09:55:30;16.13;;;5.77;;
3415;SDS011;1721;51.238;9.562;2023-07-30T09:57:55;18.30;;;5.30;;
3415;SDS011;1721;51.238;9.562;2023-07-30T10:00:21;12.20;;;5.37;;
3415;SDS011;1721;51.238;9.562;2023-07-30T10:02:48;14.53;;;5.47;;
3415;SDS011;1721;51.238;9.562;2023-07-30T10:05:18;9.87;;;5.50;;
3415;SDS011;1721;51.238;9.562;2023-07-30T10:07:53;10.27;;;5.30;;
3415;SDS011;1721;51.238;9.562;2023-07-30T10:10:23;13.33;;;4.90;;
3415;SDS011;1721;51.238;9.562;2023-07-30T10:12:50;11.83;;;5.00;;
3415;SDS011;1721;51.238;9.562;2023-07-30T10:15:18;12.20;;;4.50;;
3415;SDS011;1721;51.238;9.562;2023-07-30T10:17:49;13.40;;;5.30;;
3415;SDS011;1721;51.238;9.562;2023-07-30T10:20:25;12.10;;;4.93;;
3415;SDS011;1721;51.238;9.562;2023-07-30T10:22:58;13.33;;;4.57;;
3415;SDS011;1721;51.238;9.562;2023-07-30T10:25:42;10.70;;;3.80;;
3415;SDS011;1721;51.238;9.562;2023-07-30T10:28:20;10.00;;;4.10;;
3415;SDS011;1721;51.238;9.562;2023-07-30T10:30:55;14.90;;;5.00;;
3415;SDS011;1721;51.238;9.562;2023-07-30T10:33:22;12.40;;;3.50;;
3415;SDS011;1721;51.238;9.562;2023-07-30T10:35:47;12.43;;;3.80;;
3415;SDS011;1721;51.238;9.562;2023-07-30T10:41:26;9.23;;;2.70;;
3415;SDS011;1721;51.238;9.562;2023-07-30T10:43:49;11.13;;;2.80;;
3415;SDS011;1721;51.238;9.562;2023-07-30T10:46:16;8.97;;;3.80;;
3415;SDS011;1721;51.238;9.562;2023-07-30T10:48:44;8.90;;;3.90;;
3415;SDS011;1721;51.238;9.562;2023-07-30T10:51:15;13.20;;;3.53;;
3415;SDS011;1721;51.238;9.562;2023-07-30T10:53:44;7.90;;;3.13;;
3415;SDS011;1721;51.238;9.562;2023-07-30T10:56:12;7.83;;;3.07;;
3415;SDS011;1721;51.238;9.562;2023-07-30T10:58:38;7.30;;;3.03;;
3415;SDS011;1721;51.238;9.562;2023-07-30T11:01:04;8.20;;;2.57;;
3415;SDS011;1721;51.238;9.562;2023-07-30T11:03:32;6.43;;;1.67;;
3415;SDS011;1721;51.238;9.562;2023-07-30T11:05:58;6.43;;;1.93;;
3415;SDS011;1721;51.238;9.562;2023-07-30T11:11:06;6.67;;;1.53;;
3415;SDS011;1721;51.238;9.562;2023-07-30T11:13:37;6.00;;;1.77;;
3415;SDS011;1721;51.238;9.562;2023-07-30T11:16:06;6.60;;;1.63;;
3415;SDS011;1721;51.238;9.562;2023-07-30T11:18:32;4.60;;;1.33;;
3415;SDS011;1721;51.238;9.562;2023-07-30T11:21:11;6.67;;;3.10;;
3415;SDS011;1721;51.238;9.562;2023-07-30T11:23:39;4.00;;;1.60;;
3415;SDS011;1721;51.238;9.562;2023-07-30T11:26:07;5.30;;;1.75;;
3415;SDS011;1721;51.238;9.562;2023-07-30T11:28:37;4.53;;;1.80;;
3415;SDS011;1721;51.238;9.562;2023-07-30T11:33:32;6.78;;;2.25;;
3415;SDS011;1721;51.238;9.562;2023-07-30T11:36:00;5.35;;;2.08;;
3415;SDS011;1721;51.238;9.562;2023-07-30T11:38:27;3.50;;;1.40;;
3415;SDS011;1721;51.238;9.562;2023-07-30T11:40:53;4.10;;;1.53;;
3415;SDS011;1721;51.238;9.562;2023-07-30T11:43:20;5.33;;;1.80;;
3415;SDS011;1721;51.238;9.562;2023-07-30T11:45:46;6.73;;;1.77;;
3415;SDS011;1721;51.238;9.562;2023-07-30T11:48:12;6.60;;;1.60;;
3415;SDS011;1721;51.238;9.562;2023-07-30T11:50:42;3.80;;;1.63;;
3415;SDS011;1721;51.238;9.562;2023-07-30T11:53:14;4.70;;;1.50;;
3415;SDS011;1721;51.238;9.562;2023-07-30T11:55:40;9.00;;;1.93;;
3415;SDS011;1721;51.238;9.562;2023-07-30T11:58:08;4.30;;;1.40;;
3415;SDS011;1721;51.238;9.562;2023-07-30T12:00:35;4.80;;;1.40;;
3415;SDS011;1721;51.238;9.562;2023-07-30T12:03:02;6.30;;;1.73;;
3415;SDS011;1721;51.238;9.562;2023-07-30T12:05:32;4.80;;;1.87;;
3415;SDS011;1721;51.238;9.562;2023-07-30T12:07:59;5.97;;;1.83;;
3415;SDS011;1721;51.238;9.562;2023-07-30T12:10:28;4.50;;;1.83;;
3415;SDS011;1721;51.238;9.562;2023-07-30T12:13:10;7.47;;;2.20;;
3415;SDS011;1721;51.238;9.562;2023-07-30T12:15:36;7.70;;;2.37;;
3415;SDS011;1721;51.238;9.562;2023-07-30T12:18:02;5.07;;;2.17;;
3415;SDS011;1721;51.238;9.562;2023-07-30T12:20:28;6.93;;;2.53;;
3415;SDS011;1721;51.238;9.562;2023-07-30T12:22:54;6.70;;;2.13;;
3415;SDS011;1721;51.238;9.562;2023-07-30T12:25:19;5.23;;;2.10;;
3415;SDS011;1721;51.238;9.562;2023-07-30T12:27:45;6.00;;;2.13;;
3415;SDS011;1721;51.238;9.562;2023-07-30T12:30:10;9.53;;;2.67;;
3415;SDS011;1721;51.238;9.562;2023-07-30T12:32:36;7.33;;;2.40;;
3415;SDS011;1721;51.238;9.562;2023-07-30T12:35:01;5.90;;;2.27;;
3415;SDS011;1721;51.238;9.562;2023-07-30T12:37:27;5.70;;;2.70;;
3415;SDS011;1721;51.238;9.562;2023-07-30T12:39:53;5.77;;;2.30;;
3415;SDS011;1721;51.238;9.562;2023-07-30T12:42:18;6.60;;;2.60;;
3415;SDS011;1721;51.238;9.562;2023-07-30T12:44:44;8.40;;;2.13;;
3415;SDS011;1721;51.238;9.562;2023-07-30T12:47:09;4.60;;;2.10;;
3415;SDS011;1721;51.238;9.562;2023-07-30T12:49:35;6.23;;;2.40;;
3415;SDS011;1721;51.238;9.562;2023-07-30T12:52:00;7.40;;;2.50;;
3415;SDS011;1721;51.238;9.562;2023-07-30T12:54:26;7.37;;;3.77;;
3415;SDS011;1721;51.238;9.562;2023-07-30T12:56:51;8.17;;;3.00;;
3415;SDS011;1721;51.238;9.562;2023-07-30T12:59:17;5.43;;;2.67;;
3415;SDS011;1721;51.238;9.562;2023-07-30T13:01:42;5.20;;;2.50;;
3415;SDS011;1721;51.238;9.562;2023-07-30T13:04:08;8.30;;;3.13;;
3415;SDS011;1721;51.238;9.562;2023-07-30T13:06:33;9.93;;;3.27;;
3415;SDS011;1721;51.238;9.562;2023-07-30T13:08:59;12.43;;;3.27;;
3415;SDS011;1721;51.238;9.562;2023-07-30T13:11:24;10.97;;;3.07;;
3415;SDS011;1721;51.238;9.562;2023-07-30T13:13:50;11.83;;;3.13;;
3415;SDS011;1721;51.238;9.562;2023-07-30T13:16:15;7.73;;;3.80;;
3415;SDS011;1721;51.238;9.562;2023-07-30T13:18:41;9.57;;;4.07;;
3415;SDS011;1721;51.238;9.562;2023-07-30T13:21:06;7.23;;;2.93;;
3415;SDS011;1721;51.238;9.562;2023-07-30T13:23:32;8.53;;;3.53;;
3415;SDS011;1721;51.238;9.562;2023-07-30T13:25:57;8.97;;;3.63;;
3415;SDS011;1721;51.238;9.562;2023-07-30T13:28:23;6.30;;;2.63;;
3415;SDS011;1721;51.238;9.562;2023-07-30T13:30:49;10.87;;;3.33;;
3415;SDS011;1721;51.238;9.562;2023-07-30T13:33:15;7.80;;;3.10;;
3415;SDS011;1721;51.238;9.562;2023-07-30T13:35:41;6.50;;;2.60;;
3415;SDS011;1721;51.238;9.562;2023-07-30T13:38:06;6.10;;;2.70;;
3415;SDS011;1721;51.238;9.562;2023-07-30T13:40:32;6.47;;;2.63;;
3415;SDS011;1721;51.238;9.562;2023-07-30T13:42:57;6.60;;;2.70;;
3415;SDS011;1721;51.238;9.562;2023-07-30T13:45:23;9.33;;;2.80;;
3415;SDS011;1721;51.238;9.562;2023-07-30T13:47:48;5.90;;;2.20;;
3415;SDS011;1721;51.238;9.562;2023-07-30T13:50:14;10.80;;;3.20;;
3415;SDS011;1721;51.238;9.562;2023-07-30T13:52:40;5.43;;;1.67;;
3415;SDS011;1721;51.238;9.562;2023-07-30T13:55:05;5.10;;;1.77;;
3415;SDS011;1721;51.238;9.562;2023-07-30T13:57:31;7.03;;;1.60;;
3415;SDS011;1721;51.238;9.562;2023-07-30T13:59:57;4.43;;;1.63;;
3415;SDS011;1721;51.238;9.562;2023-07-30T14:02:22;6.87;;;1.40;;
3415;SDS011;1721;51.238;9.562;2023-07-30T14:04:48;6.33;;;1.50;;
3415;SDS011;1721;51.238;9.562;2023-07-30T14:07:14;4.70;;;1.30;;
3415;SDS011;1721;51.238;9.562;2023-07-30T14:09:39;6.23;;;1.20;;
3415;SDS011;1721;51.238;9.562;2023-07-30T14:12:05;5.17;;;1.10;;
3415;SDS011;1721;51.238;9.562;2023-07-30T14:14:31;8.27;;;1.30;;
3415;SDS011;1721;51.238;9.562;2023-07-30T14:16:57;6.43;;;1.53;;
3415;SDS011;1721;51.238;9.562;2023-07-30T14:19:22;4.10;;;1.27;;
3415;SDS011;1721;51.238;9.562;2023-07-30T14:21:48;6.63;;;1.23;;
3415;SDS011;1721;51.238;9.562;2023-07-30T14:24:14;6.57;;;1.40;;
3415;SDS011;1721;51.238;9.562;2023-07-30T14:26:39;5.23;;;1.10;;
3415;SDS011;1721;51.238;9.562;2023-07-30T14:29:05;4.37;;;1.30;;
3415;SDS011;1721;51.238;9.562;2023-07-30T14:31:31;6.07;;;1.17;;
3415;SDS011;1721;51.238;9.562;2023-07-30T14:33:56;5.73;;;1.47;;
3415;SDS011;1721;51.238;9.562;2023-07-30T14:36:22;4.63;;;1.40;;
3415;SDS011;1721;51.238;9.562;2023-07-30T14:38:48;8.53;;;1.37;;
3415;SDS011;1721;51.238;9.562;2023-07-30T14:41:13;5.00;;;1.20;;
3415;SDS011;1721;51.238;9.562;2023-07-30T14:43:39;3.93;;;1.27;;
3415;SDS011;1721;51.238;9.562;2023-07-30T14:46:04;6.30;;;1.00;;
3415;SDS011;1721;51.238;9.562;2023-07-30T14:48:30;5.83;;;1.50;;
3415;SDS011;1721;51.238;9.562;2023-07-30T14:50:56;3.93;;;0.90;;
3415;SDS011;1721;51.238;9.562;2023-07-30T14:53:22;6.13;;;1.03;;
3415;SDS011;1721;51.238;9.562;2023-07-30T14:55:47;4.77;;;1.10;;
3415;SDS011;1721;51.238;9.562;2023-07-30T14:58:13;5.00;;;1.00;;
3415;SDS011;1721;51.238;9.562;2023-07-30T15:00:39;4.17;;;0.80;;
3415;SDS011;1721;51.238;9.562;2023-07-30T15:03:04;4.87;;;1.40;;
3415;SDS011;1721;51.238;9.562;2023-07-30T15:05:30;7.03;;;1.30;;
3415;SDS011;1721;51.238;9.562;2023-07-30T15:07:57;5.10;;;1.07;;
3415;SDS011;1721;51.238;9.562;2023-07-30T15:10:23;4.93;;;1.30;;
3415;SDS011;1721;51.238;9.562;2023-07-30T15:12:48;6.80;;;1.60;;
3415;SDS011;1721;51.238;9.562;2023-07-30T15:15:14;4.70;;;1.30;;